x

East Lake Ontario - 20nm North Northeast Of Rochester, Ny (45012) Wave Buoy

11:50pm - Sun 19th Nov 2017 All times are CST. -6 hours from GMT.

  • Sig Wave height 6.6ft
  • Swell Direction
  • Peak Period 7s
  • Average Period 5s
  • Wind
    29mph, 36mph gusts
  • Sea Temp 47°f
  • Air Temp 33°f
  • Sea Pressure 1010.1mb
  • East Lake Ontario  - 20nm North Northeast Of Rochester, Ny
  • East Lake Ontario  - 20nm North Northeast Of Rochester, Ny

More Historic Weather Station data

Upgrade to MSW Pro to gain access to the past 30 days of data for over 8000 Wavebouys and Weather Stations around the globe.

Join

Comparision Forecast

View Surf forecast
   
Sun 11/19 11:50pm 6.5ft 7s 5s 29 36 mph 1010.1mb 47f 33f
10:50pm 7.5ft 7s 5s 29 36 mph 1009.3mb 47f 34f
9:50pm 7ft 7s 5s 34 38 mph 1008.3mb 47f 35f
8:50pm 7ft 7s 5s 29 38 mph 1007.7mb 47f 35f
7:50pm 6ft 7s 5s 29 34 mph 1006.9mb 47f 36f
6:50pm 6ft 6s 5s 31 38 mph 1006mb 48f 37f
5:50pm 5ft 5s 5s 25 29 mph 1005.8mb 48f 38f
4:50pm 5ft 5s 4s 29 34 mph 1004.7mb 48f 38f
3:50pm 6ft 6s 5s 25 31 mph 1004.2mb 48f 38f
2:50pm 6ft 6s 5s 25 31 mph 1003.8mb 48f 38f
1:50pm 6ft 6s 5s 29 36 mph 1002.5mb 48f 39f
12:50pm 5.5ft 6s 5s 29 36 mph 1001.9mb 48f 40f
11:50am 6ft 7s 5s 25 34 mph 1001.6mb 48f 39f
10:50am 6ft 7s 5s 25 29 mph 1001.5mb 48f 38f
9:50am 6ft 6s 5s 27 34 mph 1001.2mb 48f 37f
8:50am 7ft 7s 5s 29 36 mph 999.9mb 48f 37f
7:50am 7ft 7s 5s 31 38 mph 998.5mb 48f 36f
6:50am 6.5ft 6s 5s 34 40 mph 996.4mb 48f 37f
5:50am 6ft 6s 5s 34 40 mph 994.3mb 48f 36f
4:50am 5.5ft 6s 5s 34 40 mph 991.5mb 48f 36f
3:50am 6ft 5s 5s 31 38 mph 988.1mb 48f 38f
2:50am 4.5ft 4s 4s 34 43 mph 984.8mb 49f 40f
1:50am 2.5ft 4s 4s 27 34 mph 983.5mb 49f 42f
12:50am 2.5ft 4s 4s 13 16 mph 982.7mb 49f 50f
Sat 11/18 11:50pm 3ft 5s 4s 18 20 mph 983.1mb 49f 49f
10:50pm 3ft 4s 4s 20 22 mph 984.2mb 49f 48f
9:50pm 3ft 4s 4s 22 27 mph 985mb 49f 48f
8:50pm 3.5ft 5s 4s 22 25 mph 987.3mb 49f 47f
7:50pm 3.5ft 4s 4s 25 29 mph 988.9mb 49f 46f
6:50pm 3ft 4s 4s 25 29 mph 990.4mb 49f 46f
5:50pm 2.5ft 4s 4s 22 25 mph 992.3mb 49f 46f
4:50pm 2.5ft 4s 4s 20 22 mph 993.9mb 49f 47f
3:50pm 2.5ft 4s 4s 20 25 mph 994.7mb 49f 48f
2:50pm 2.5ft 4s 4s 18 20 mph 995.1mb 49f 48f
1:50pm 2.5ft 4s 4s 13 16 mph 996.4mb 49f 48f
12:50pm 2.5ft 4s 4s 18 22 mph 997.8mb 48f 49f
11:50am 2.5ft 5s 4s 16 20 mph 998.2mb 48f 48f
10:50am 3ft 5s 4s 13 18 mph 999.4mb 48f 48f
9:50am 3.5ft 5s 4s 18 20 mph 1001.5mb 48f 45f
8:50am 3.5ft 4s 4s 20 25 mph 1002.1mb 48f 45f
7:50am 2.5ft 5s 4s 20 25 mph 1002.7mb 48f 44f
6:50am 3ft 5s 4s 18 20 mph 1004mb 48f 45f
5:50am 3.5ft 5s 4s 20 22 mph 1004.6mb 48f 44f
4:50am 3ft 5s 4s 20 22 mph 1005.6mb 48f 43f
3:50am 3ft 5s 4s 20 22 mph 1006.5mb 48f 42f
2:50am 3ft 4s 4s 20 25 mph 1008mb 48f 41f
1:50am 2.5ft 4s 4s 20 22 mph 1009.6mb 48f 40f
12:50am 2.5ft 4s 3s 20 22 mph 1011mb 48f 40f
Fri 11/17 11:50pm 2.5ft 4s 3s 20 25 mph 1012.3mb 48f 40f
10:50pm 2ft 4s 3s 18 20 mph 1014.1mb 48f 40f
9:50pm 1ft 3s 3s 16 20 mph 1015.5mb 48f 39f
8:50pm  -   -   -  13 16 mph 1016.5mb 48f 39f
7:50pm 0.7ft  -  3s 11 16 mph 1017.4mb 48f 38f
6:50pm 1ft 3s 3s 9 11 mph 1018.7mb 48f 37f
5:50pm 1.3ft 3s 3s 7 9 mph 1019.9mb 48f 36f
4:50pm 1.3ft 4s 3s 4 7 mph 1020.3mb 48f 36f
3:50pm 1.6ft 4s 3s 9 13 mph 1021.2mb 48f 35f
2:50pm 1.6ft 4s 3s 16 18 mph 1021.7mb 48f 34f
1:50pm 2ft 4s 3s 13 18 mph 1022.2mb 47f 33f
12:50pm 2ft 4s 4s 13 18 mph 1022.6mb 47f 33f
11:50am 2.5ft 5s 4s 11 16 mph 1023.4mb 47f 32f
10:50am 2.5ft 5s 4s 11 16 mph 1023.8mb 47f 31f
9:50am 2.5ft 5s 4s 13 16 mph 1024.6mb 47f 30f
8:50am 3.5ft 5s 4s 13 18 mph 1024.6mb 48f 29f
7:50am 4.5ft 6s 4s 18 22 mph 1024.8mb 47f 30f
6:50am 4.5ft 6s 4s 20 25 mph 1024.2mb 47f 30f
5:50am 5ft 6s 5s 20 25 mph 1023.1mb 48f 30f
4:50am 5ft 6s 4s 25 31 mph 1022.5mb 48f 31f
3:50am 5ft 6s 5s 25 31 mph 1021.7mb 48f 32f
2:50am 5ft 6s 5s 25 29 mph 1020.9mb 48f 33f
1:50am 5ft 6s 5s 22 27 mph 1020.1mb 48f 35f
12:50am 5ft 6s 5s 22 27 mph 1019.2mb 48f 35f
Thu 11/16 11:50pm 6ft 6s 5s 22 27 mph 1018.5mb 48f 36f
10:50pm 6ft 6s 5s 27 34 mph 1017.6mb 49f 36f
9:50pm 6ft 7s 5s 27 34 mph 1016.5mb 49f 37f
8:50pm 6ft 6s 5s 27 31 mph 1015.8mb 49f 38f
7:50pm 6.5ft 6s 5s 29 36 mph 1014.8mb 49f 39f
6:50pm 6ft 6s 5s 29 34 mph 1013.8mb 49f 40f
5:50pm 7ft 7s 5s 29 36 mph 1012.6mb 49f 42f
4:50pm 7ft 7s 5s 29 36 mph 1011.1mb 49f 43f
3:50pm 8ft 7s 6s 27 34 mph 1010.1mb 49f 44f
2:50pm 9ft 8s 6s 29 36 mph 1008.8mb 49f 43f
1:50pm 8.5ft 7s 6s 31 40 mph 1006.5mb 49f 45f
12:50pm 8ft 7s 6s 34 40 mph 1005.7mb 49f 46f
11:50am 8ft 7s 6s 34 40 mph 1005.4mb 49f 46f
10:50am 7ft 7s 5s 31 38 mph 1005.4mb 49f 46f
9:50am 7ft 7s 5s 29 34 mph 1005.7mb 49f 46f
8:50am 7ft 7s 5s 29 34 mph 1005.5mb 49f 47f
7:50am 6.5ft 7s 5s 31 38 mph 1005.2mb 50f 47f
6:50am 6.5ft 6s 5s 27 34 mph 1005.2mb 50f 46f